createdAt,value
2018-08-30T00:00:16.212Z,20.97
2018-08-30T00:02:44.090Z,19.33
2018-08-30T00:05:11.961Z,17.67
2018-08-30T00:07:39.825Z,15.87
2018-08-30T00:10:07.712Z,14.80
2018-08-30T00:12:35.554Z,12.50
2018-08-30T00:15:03.517Z,12.60
2018-08-30T00:17:31.369Z,12.23
2018-08-30T00:19:59.255Z,11.03
2018-08-30T00:22:27.230Z,10.67
2018-08-30T00:24:55.130Z,10.00
2018-08-30T00:27:23.033Z,9.30
2018-08-30T00:29:50.957Z,8.77
2018-08-30T00:32:18.808Z,9.27
2018-08-30T00:34:46.698Z,8.83
2018-08-30T00:37:14.570Z,10.00
2018-08-30T00:39:42.440Z,9.67
2018-08-30T00:42:10.355Z,9.97
2018-08-30T00:44:38.233Z,10.77
2018-08-30T00:47:06.137Z,9.07
2018-08-30T00:49:34.020Z,9.93
2018-08-30T00:52:01.899Z,9.03
2018-08-30T01:03:50.362Z,10.73
2018-08-30T01:06:26.935Z,10.23
2018-08-30T01:08:54.779Z,11.93
2018-08-30T01:11:22.642Z,12.90
2018-08-30T01:13:50.531Z,13.27
2018-08-30T01:16:18.458Z,14.57
2018-08-30T01:18:46.351Z,13.33
2018-08-30T01:21:14.226Z,15.17
2018-08-30T01:23:42.151Z,16.07
2018-08-30T01:26:10.004Z,16.00
2018-08-30T01:28:37.920Z,17.00
2018-08-30T01:31:05.785Z,17.47
2018-08-30T01:33:33.642Z,17.50
2018-08-30T01:36:01.540Z,19.30
2018-08-30T01:38:29.382Z,19.77
2018-08-30T01:40:57.312Z,20.60
2018-08-30T01:43:25.181Z,22.10
2018-08-30T01:45:54.038Z,21.77
2018-08-30T01:48:21.901Z,21.97
2018-08-30T01:50:49.753Z,22.20
2018-08-30T01:53:17.596Z,20.93
2018-08-30T01:55:45.474Z,22.90
2018-08-30T01:58:13.336Z,21.40
2018-08-30T02:00:41.208Z,23.50
2018-08-30T02:03:09.057Z,23.97
2018-08-30T02:05:36.945Z,25.30
2018-08-30T02:08:04.897Z,25.43
2018-08-30T02:10:38.155Z,25.47
2018-08-30T02:13:06.072Z,24.57
2018-08-30T02:15:33.946Z,25.23
2018-08-30T02:18:01.819Z,24.50
2018-08-30T02:20:29.665Z,25.07
2018-08-30T02:22:57.551Z,25.07
2018-08-30T02:25:25.388Z,25.63
2018-08-30T02:27:53.285Z,25.03
2018-08-30T02:30:21.121Z,25.40
2018-08-30T02:32:49.046Z,26.33
2018-08-30T02:35:16.880Z,25.60
2018-08-30T02:37:44.758Z,24.10
2018-08-30T02:40:12.666Z,26.37
2018-08-30T02:42:40.523Z,25.17
2018-08-30T02:45:08.430Z,25.93
2018-08-30T02:47:36.290Z,26.40
2018-08-30T02:50:04.218Z,27.40
2018-08-30T02:52:32.037Z,26.57
2018-08-30T02:54:59.921Z,27.93
2018-08-30T02:57:27.787Z,26.97
2018-08-30T02:59:55.660Z,27.63
2018-08-30T03:02:23.501Z,27.27
2018-08-30T03:04:51.392Z,28.03
2018-08-30T03:07:19.227Z,28.80
2018-08-30T03:09:47.084Z,27.93
2018-08-30T03:12:16.014Z,28.00
2018-08-30T03:14:49.167Z,28.87
2018-08-30T03:17:17.135Z,27.70
2018-08-30T03:19:45.987Z,28.83
2018-08-30T03:22:13.817Z,27.23
2018-08-30T03:24:43.326Z,28.60
2018-08-30T03:27:11.186Z,26.60
2018-08-30T03:29:39.101Z,27.60
2018-08-30T03:32:07.925Z,28.73
2018-08-30T03:34:35.823Z,28.40
2018-08-30T03:37:03.678Z,28.10
2018-08-30T03:39:31.571Z,26.63
2018-08-30T03:41:59.389Z,28.37
2018-08-30T03:44:27.239Z,27.63
2018-08-30T03:46:55.126Z,26.80
2018-08-30T03:49:22.951Z,26.53
2018-08-30T03:51:50.778Z,26.50
2018-08-30T03:54:18.654Z,27.37
2018-08-30T03:56:46.521Z,27.63
2018-08-30T03:59:14.350Z,24.37
2018-08-30T04:01:42.200Z,25.83
2018-08-30T04:04:10.022Z,23.50
2018-08-30T04:06:37.851Z,23.63
2018-08-30T04:09:06.979Z,22.50
2018-08-30T04:11:34.846Z,23.30
2018-08-30T04:14:02.714Z,20.30
2018-08-30T04:16:30.575Z,20.90
2018-08-30T04:19:03.749Z,20.03
2018-08-30T04:21:31.753Z,18.27
2018-08-30T04:23:59.929Z,18.57
2018-08-30T04:26:28.016Z,19.20
2018-08-30T04:28:55.846Z,18.50
2018-08-30T04:31:23.759Z,17.20
2018-08-30T04:33:51.871Z,17.50
2018-08-30T04:36:19.754Z,16.67
2018-08-30T04:38:48.689Z,16.17
2018-08-30T04:41:16.606Z,16.90
2018-08-30T04:43:44.470Z,17.07
2018-08-30T04:46:12.307Z,16.07
2018-08-30T04:48:40.238Z,16.87
2018-08-30T04:51:08.110Z,14.60
2018-08-30T04:53:38.013Z,16.43
2018-08-30T04:56:05.901Z,13.47
2018-08-30T04:58:33.836Z,15.30
2018-08-30T05:01:01.716Z,14.90
2018-08-30T05:03:29.720Z,13.77
2018-08-30T05:05:57.661Z,12.70
2018-08-30T05:08:26.033Z,12.20
2018-08-30T05:10:53.975Z,14.03
2018-08-30T05:13:22.008Z,11.90
2018-08-30T05:15:50.963Z,12.93
2018-08-30T05:18:19.365Z,13.90
2018-08-30T05:20:50.671Z,13.97
2018-08-30T05:23:18.518Z,14.47
2018-08-30T05:25:47.387Z,11.50
2018-08-30T05:28:15.280Z,11.37
2018-08-30T05:30:43.127Z,11.13
2018-08-30T05:33:11.008Z,9.83
2018-08-30T05:35:38.906Z,12.10
2018-08-30T05:38:06.722Z,10.80
2018-08-30T05:40:34.615Z,12.07
2018-08-30T05:43:02.561Z,12.03
2018-08-30T05:45:30.420Z,10.17
2018-08-30T05:47:59.308Z,11.20
2018-08-30T05:50:27.143Z,11.70
2018-08-30T05:52:55.001Z,12.57
2018-08-30T05:55:22.875Z,11.60
2018-08-30T05:57:50.734Z,12.03
2018-08-30T06:00:18.642Z,12.97
2018-08-30T06:02:46.510Z,11.80
2018-08-30T06:05:14.373Z,9.17
2018-08-30T06:07:43.238Z,11.40
2018-08-30T06:10:11.112Z,8.43
2018-08-30T06:12:38.998Z,6.67
2018-08-30T06:15:06.966Z,5.87
2018-08-30T06:17:34.851Z,4.60
2018-08-30T06:20:02.745Z,4.40
2018-08-30T06:22:30.692Z,2.60
2018-08-30T06:24:58.561Z,2.30
2018-08-30T06:27:27.451Z,2.57
2018-08-30T06:29:55.336Z,1.90
2018-08-30T06:32:23.276Z,1.77
2018-08-30T06:34:51.194Z,1.67
2018-08-30T06:37:19.054Z,1.43
2018-08-30T06:39:46.925Z,1.50
2018-08-30T06:42:14.787Z,0.70
2018-08-30T06:44:42.659Z,0.80
2018-08-30T06:47:10.567Z,0.60
2018-08-30T06:49:38.431Z,0.60
2018-08-30T06:52:06.325Z,0.70
2018-08-30T06:54:34.222Z,0.90
2018-08-30T06:57:02.050Z,0.90
2018-08-30T06:59:29.856Z,0.70
2018-08-30T07:01:57.512Z,0.50
2018-08-30T07:04:25.392Z,0.77
2018-08-30T07:06:53.199Z,1.33
2018-08-30T07:09:20.972Z,0.70
2018-08-30T07:11:48.723Z,0.60
2018-08-30T07:14:16.561Z,0.40
2018-08-30T07:16:44.306Z,1.00
2018-08-30T07:19:12.963Z,0.43
2018-08-30T07:21:40.741Z,0.70
2018-08-30T07:24:08.536Z,0.80
2018-08-30T07:26:36.288Z,0.40
2018-08-30T07:29:04.113Z,0.43
2018-08-30T07:31:31.896Z,0.53
2018-08-30T07:33:59.666Z,0.40
2018-08-30T07:36:27.440Z,0.70
2018-08-30T07:38:55.223Z,0.60
2018-08-30T07:41:24.004Z,0.50
2018-08-30T07:43:51.811Z,0.60
2018-08-30T07:46:19.580Z,0.50
2018-08-30T07:48:47.389Z,0.73
2018-08-30T07:51:15.153Z,0.70
2018-08-30T07:53:43.941Z,0.27
2018-08-30T07:56:11.713Z,0.20
2018-08-30T07:58:40.409Z,0.63
2018-08-30T08:01:08.172Z,0.60
2018-08-30T08:03:36.000Z,0.37
2018-08-30T08:06:03.765Z,0.30
2018-08-30T08:08:31.563Z,0.40
2018-08-30T08:10:59.328Z,0.53
2018-08-30T08:13:27.150Z,0.93
2018-08-30T08:15:54.925Z,0.40
2018-08-30T08:18:22.707Z,0.53
2018-08-30T08:20:51.481Z,0.77
2018-08-30T08:23:19.254Z,0.50
2018-08-30T08:25:47.031Z,0.50
2018-08-30T08:28:14.681Z,0.30
2018-08-30T08:30:42.455Z,0.50
2018-08-30T08:33:10.210Z,0.40
2018-08-30T08:35:39.028Z,0.20
2018-08-30T08:38:06.808Z,0.60
2018-08-30T08:40:34.605Z,0.30
2018-08-30T08:43:02.385Z,0.90
2018-08-30T08:45:30.248Z,0.50
2018-08-30T08:47:58.077Z,0.40
2018-08-30T08:50:25.861Z,0.57
2018-08-30T08:52:53.644Z,0.75
2018-08-30T08:55:21.330Z,0.30
2018-08-30T08:57:49.084Z,1.40
2018-08-30T09:00:16.802Z,0.33
2018-08-30T09:02:44.599Z,0.50
2018-08-30T09:05:12.363Z,0.50
2018-08-30T09:07:40.190Z,0.50
2018-08-30T09:10:07.959Z,0.60
2018-08-30T09:12:35.710Z,0.40
2018-08-30T09:15:03.617Z,0.42
2018-08-30T09:17:31.407Z,0.68
2018-08-30T09:19:59.253Z,0.30
2018-08-30T09:22:27.121Z,0.80
2018-08-30T09:24:54.937Z,0.50
2018-08-30T09:27:22.701Z,0.50
2018-08-30T09:29:50.507Z,0.40
2018-08-30T09:32:18.263Z,0.60
2018-08-30T09:34:46.072Z,0.60
2018-08-30T09:37:14.353Z,0.45
2018-08-30T09:39:43.102Z,0.65
2018-08-30T09:42:10.897Z,0.55
2018-08-30T09:44:38.751Z,0.42
2018-08-30T09:47:06.525Z,0.57
2018-08-30T09:49:34.345Z,0.53
2018-08-30T09:52:02.097Z,0.40
2018-08-30T09:54:29.898Z,0.93
2018-08-30T09:56:57.891Z,0.68
2018-08-30T09:59:25.560Z,0.68
2018-08-30T10:02:06.756Z,0.40
2018-08-30T10:04:34.536Z,0.50
2018-08-30T10:07:03.413Z,0.30
2018-08-30T10:09:31.179Z,0.68
2018-08-30T10:11:58.952Z,0.60
2018-08-30T10:14:26.733Z,0.42
2018-08-30T10:16:54.514Z,0.50
2018-08-30T10:19:22.374Z,0.30
2018-08-30T10:21:50.989Z,0.40
2018-08-30T10:24:18.781Z,0.42
2018-08-30T10:26:46.641Z,0.33
2018-08-30T10:29:14.490Z,0.60
2018-08-30T10:31:42.324Z,0.42
2018-08-30T10:34:10.044Z,0.65
2018-08-30T10:36:37.954Z,0.42
2018-08-30T10:39:06.915Z,0.50
2018-08-30T10:41:34.726Z,0.50
2018-08-30T10:44:02.686Z,0.40
2018-08-30T10:46:30.497Z,0.35
2018-08-30T10:48:58.294Z,0.50
2018-08-30T10:51:26.126Z,0.40
2018-08-30T10:53:54.072Z,0.93
2018-08-30T10:56:22.942Z,0.47
2018-08-30T10:58:50.720Z,0.40
2018-08-30T11:01:18.539Z,0.88
2018-08-30T11:03:46.502Z,0.42
2018-08-30T11:06:14.376Z,0.30
2018-08-30T11:08:42.267Z,0.47
2018-08-30T11:11:11.942Z,0.80
2018-08-30T11:13:39.756Z,0.30
2018-08-30T11:16:09.363Z,0.33
2018-08-30T11:18:37.099Z,0.35
2018-08-30T11:21:04.935Z,1.75
2018-08-30T11:23:32.766Z,0.45
2018-08-30T11:26:02.151Z,0.40
2018-08-30T11:28:29.971Z,0.30
2018-08-30T11:30:57.744Z,0.40
2018-08-30T11:33:25.577Z,0.20
2018-08-30T11:35:53.351Z,0.40
2018-08-30T11:38:21.214Z,0.20
2018-08-30T11:40:49.041Z,0.30
2018-08-30T11:43:16.878Z,0.30
2018-08-30T11:45:44.725Z,0.47
2018-08-30T11:48:12.507Z,0.30
2018-08-30T11:50:40.328Z,0.35
2018-08-30T11:53:08.119Z,0.68
2018-08-30T11:55:35.929Z,0.40
2018-08-30T11:58:03.785Z,0.53
2018-08-30T12:00:31.560Z,0.70
2018-08-30T12:02:59.794Z,0.30
2018-08-30T12:05:27.634Z,0.40
2018-08-30T12:07:56.777Z,0.30
2018-08-30T12:10:24.740Z,0.45
2018-08-30T12:12:52.496Z,0.45
2018-08-30T12:15:20.396Z,0.42
2018-08-30T12:17:48.222Z,0.30
2018-08-30T12:20:15.977Z,0.50
2018-08-30T12:22:43.770Z,0.30
2018-08-30T12:25:11.542Z,0.30
2018-08-30T12:27:39.300Z,0.40
2018-08-30T12:30:07.217Z,0.40
2018-08-30T12:32:35.061Z,0.30
2018-08-30T12:35:03.935Z,0.20
2018-08-30T12:37:31.644Z,0.20
2018-08-30T12:39:59.519Z,0.42
2018-08-30T12:42:27.312Z,0.37
2018-08-30T12:44:55.116Z,0.30
2018-08-30T12:47:22.973Z,0.50
2018-08-30T12:49:50.809Z,0.30
2018-08-30T12:52:18.677Z,0.60
2018-08-30T12:54:46.536Z,0.25
2018-08-30T12:57:14.397Z,0.30
2018-08-30T12:59:42.768Z,0.30
2018-08-30T13:02:10.523Z,0.55
2018-08-30T13:04:38.539Z,0.40
2018-08-30T13:07:06.405Z,0.23
2018-08-30T13:09:34.233Z,0.40
2018-08-30T13:12:02.190Z,0.25
2018-08-30T13:14:29.980Z,0.30
2018-08-30T13:16:58.050Z,0.50
2018-08-30T13:19:26.323Z,0.30
2018-08-30T13:21:54.006Z,0.62
2018-08-30T13:24:21.953Z,0.50
2018-08-30T13:26:49.576Z,0.30
2018-08-30T13:29:17.555Z,0.40
2018-08-30T13:31:45.696Z,0.30
2018-08-30T13:34:14.200Z,0.23
2018-08-30T13:36:43.091Z,0.20
2018-08-30T13:39:11.910Z,0.30
2018-08-30T13:41:39.809Z,0.20
2018-08-30T13:44:08.988Z,0.23
2018-08-30T13:46:37.419Z,0.25
2018-08-30T13:49:05.246Z,0.40
2018-08-30T13:51:33.218Z,0.28
2018-08-30T13:54:01.401Z,0.30
2018-08-30T13:56:29.204Z,0.45
2018-08-30T13:58:57.198Z,0.30
2018-08-30T14:01:24.980Z,0.23
2018-08-30T14:03:54.467Z,0.30
2018-08-30T14:06:22.464Z,0.40
2018-08-30T14:08:50.341Z,0.42
2018-08-30T14:11:18.093Z,0.30
2018-08-30T14:13:45.920Z,0.30
2018-08-30T14:16:13.487Z,0.40
2018-08-30T14:18:42.433Z,0.45
2018-08-30T14:21:10.211Z,0.60
2018-08-30T14:23:38.152Z,0.23
2018-08-30T14:26:05.856Z,0.57
2018-08-30T14:28:35.609Z,0.30
2018-08-30T14:31:03.486Z,0.40
2018-08-30T14:33:31.303Z,0.40
2018-08-30T14:35:59.106Z,0.30
2018-08-30T14:38:26.944Z,0.30
2018-08-30T14:40:54.827Z,0.30
2018-08-30T14:43:22.514Z,0.40
2018-08-30T14:45:50.342Z,0.20
2018-08-30T14:48:18.210Z,0.20
2018-08-30T14:50:46.044Z,0.30
2018-08-30T14:53:13.939Z,0.33
2018-08-30T14:55:41.690Z,0.20
2018-08-30T14:58:09.510Z,0.30
2018-08-30T15:00:37.280Z,0.28
2018-08-30T15:03:05.096Z,0.30
2018-08-30T15:05:35.361Z,0.30
2018-08-30T15:08:03.253Z,0.20
2018-08-30T15:10:31.047Z,0.30
2018-08-30T15:12:58.845Z,0.20
2018-08-30T15:15:26.741Z,0.37
2018-08-30T15:17:56.415Z,0.20
2018-08-30T15:20:24.300Z,0.55
2018-08-30T15:22:51.986Z,0.20
2018-08-30T15:25:19.779Z,0.35
2018-08-30T15:27:47.669Z,0.40
2018-08-30T15:30:15.463Z,0.20
2018-08-30T15:32:43.308Z,6.78
2018-08-30T15:35:12.130Z,0.35
2018-08-30T15:37:39.964Z,0.30
2018-08-30T15:40:09.165Z,0.30
2018-08-30T15:42:36.993Z,0.30
2018-08-30T15:45:04.818Z,0.30
2018-08-30T15:47:32.704Z,0.40
2018-08-30T15:50:00.507Z,0.65
2018-08-30T15:52:28.317Z,0.30
2018-08-30T15:54:56.124Z,0.30
2018-08-30T15:57:24.994Z,0.30
2018-08-30T15:59:52.664Z,4.35
2018-08-30T16:02:23.476Z,0.55
2018-08-30T16:04:52.052Z,0.40
2018-08-30T16:07:19.878Z,0.30
2018-08-30T16:09:47.689Z,0.47
2018-08-30T16:12:15.507Z,0.50
2018-08-30T16:14:43.344Z,0.30
2018-08-30T16:17:11.185Z,0.20
2018-08-30T16:19:38.949Z,0.20
2018-08-30T16:22:06.818Z,0.28
2018-08-30T16:24:34.752Z,0.20
2018-08-30T16:27:02.482Z,0.50
2018-08-30T16:29:30.339Z,0.30
2018-08-30T16:31:58.107Z,0.20
2018-08-30T16:34:25.909Z,0.30
2018-08-30T16:36:53.747Z,0.23
2018-08-30T16:39:21.538Z,0.50
2018-08-30T16:41:49.337Z,0.40
2018-08-30T16:44:18.636Z,0.17
2018-08-30T16:46:46.445Z,0.20
2018-08-30T16:49:14.285Z,3.27
2018-08-30T16:51:42.072Z,0.95
2018-08-30T16:54:09.955Z,0.20
2018-08-30T16:57:11.943Z,0.35
2018-08-30T16:59:40.503Z,0.50
2018-08-30T17:02:09.390Z,0.30
2018-08-30T17:04:37.186Z,0.55
2018-08-30T17:07:05.129Z,0.30
2018-08-30T17:09:32.941Z,0.37
2018-08-30T17:12:01.939Z,0.37
2018-08-30T17:14:29.968Z,0.20
2018-08-30T17:17:19.328Z,0.20
2018-08-30T17:19:47.346Z,0.88
2018-08-30T17:22:15.255Z,8.70
2018-08-30T17:24:43.252Z,0.45
2018-08-30T17:27:11.287Z,0.30
2018-08-30T17:29:39.237Z,0.20
2018-08-30T17:32:07.389Z,0.33
2018-08-30T17:34:35.384Z,0.23
2018-08-30T17:37:03.697Z,0.23
2018-08-30T17:39:31.638Z,0.30
2018-08-30T17:41:59.619Z,0.33
2018-08-30T17:44:27.535Z,0.40
2018-08-30T17:46:55.592Z,0.40
2018-08-30T17:49:23.555Z,0.40
2018-08-30T17:51:51.602Z,0.30
2018-08-30T17:54:19.498Z,0.23
2018-08-30T17:56:47.429Z,0.30
2018-08-30T17:59:15.318Z,0.27
2018-08-30T18:01:44.143Z,0.10
2018-08-30T18:04:12.146Z,0.20
2018-08-30T18:06:41.185Z,0.30
2018-08-30T18:09:09.790Z,0.30
2018-08-30T18:11:37.974Z,0.30
2018-08-30T18:14:05.956Z,0.20
2018-08-30T18:16:33.902Z,0.20
2018-08-30T18:19:02.025Z,0.20
2018-08-30T18:21:29.841Z,0.10
2018-08-30T18:23:57.828Z,0.23
2018-08-30T18:26:25.708Z,0.20
2018-08-30T18:28:53.402Z,0.20
2018-08-30T18:31:22.215Z,0.40
2018-08-30T18:33:50.023Z,0.30
2018-08-30T18:36:17.923Z,0.43
2018-08-30T18:38:45.757Z,0.47
2018-08-30T18:41:15.544Z,0.30
2018-08-30T18:43:43.363Z,0.30
2018-08-30T18:46:11.263Z,0.40
2018-08-30T18:48:39.081Z,0.30
2018-08-30T18:51:06.896Z,0.20
2018-08-30T18:53:34.849Z,0.27
2018-08-30T18:56:03.687Z,0.40
2018-08-30T18:58:31.504Z,0.40
2018-08-30T19:00:59.376Z,0.30
2018-08-30T19:03:27.131Z,0.60
2018-08-30T19:05:55.226Z,0.20
2018-08-30T19:08:23.065Z,0.30
2018-08-30T19:10:50.946Z,0.20
2018-08-30T19:13:18.826Z,0.67
2018-08-30T19:15:52.214Z,0.30
2018-08-30T19:18:25.497Z,0.40
2018-08-30T19:20:53.323Z,0.40
2018-08-30T19:23:21.195Z,0.30
2018-08-30T19:25:50.044Z,0.80
2018-08-30T19:28:17.876Z,0.40
2018-08-30T19:30:45.673Z,0.30
2018-08-30T19:33:13.430Z,0.30
2018-08-30T19:35:46.769Z,0.63
2018-08-30T19:38:14.561Z,0.23
2018-08-30T19:40:48.019Z,0.30
2018-08-30T19:43:15.863Z,0.33
2018-08-30T19:45:43.728Z,0.40
2018-08-30T19:48:11.508Z,0.50
2018-08-30T19:50:39.268Z,0.30
2018-08-30T19:53:07.049Z,0.47
2018-08-30T19:55:34.843Z,0.40
2018-08-30T19:58:02.649Z,0.60
2018-08-30T20:00:30.417Z,1.00
2018-08-30T20:02:58.228Z,0.57
2018-08-30T20:05:26.028Z,0.50
2018-08-30T20:07:54.854Z,0.77
2018-08-30T20:10:22.677Z,0.50
2018-08-30T20:12:50.489Z,0.57
2018-08-30T20:15:18.350Z,0.40
2018-08-30T20:17:46.153Z,0.40
2018-08-30T20:20:13.967Z,0.63
2018-08-30T20:22:41.894Z,0.50
2018-08-30T20:25:09.723Z,0.50
2018-08-30T20:27:37.560Z,0.50
2018-08-30T20:30:36.148Z,0.80
2018-08-30T20:33:11.487Z,0.40
2018-08-30T20:35:39.577Z,0.50
2018-08-30T20:38:07.560Z,0.73
2018-08-30T20:40:37.106Z,0.50
2018-08-30T20:43:05.387Z,0.60
2018-08-30T20:45:33.358Z,0.50
2018-08-30T20:48:01.238Z,0.60
2018-08-30T20:50:29.720Z,0.57
2018-08-30T20:52:57.652Z,0.70
2018-08-30T20:55:25.604Z,0.60
2018-08-30T20:57:53.541Z,1.20
2018-08-30T21:00:21.530Z,1.23
2018-08-30T21:02:49.465Z,1.43
2018-08-30T21:05:17.398Z,1.47
2018-08-30T21:07:45.277Z,1.30
2018-08-30T21:10:14.393Z,0.80
2018-08-30T21:12:42.329Z,1.10
2018-08-30T21:15:10.253Z,0.83
2018-08-30T21:17:38.122Z,0.90
2018-08-30T21:20:06.484Z,1.10
2018-08-30T21:22:34.341Z,1.37
2018-08-30T21:25:02.268Z,1.40
2018-08-30T21:27:31.701Z,1.70
2018-08-30T21:29:59.651Z,1.57
2018-08-30T21:33:11.186Z,1.47
2018-08-30T21:35:46.622Z,1.50
2018-08-30T21:38:14.560Z,0.90
2018-08-30T21:40:42.583Z,1.20
2018-08-30T21:43:10.520Z,1.07
2018-08-30T21:45:38.488Z,0.83
2018-08-30T21:48:06.901Z,1.40
2018-08-30T21:50:34.805Z,1.23
2018-08-30T21:53:02.760Z,0.80
2018-08-30T21:55:30.782Z,0.70
2018-08-30T21:57:58.675Z,0.70
2018-08-30T22:00:27.376Z,1.23
2018-08-30T22:02:55.346Z,1.43
2018-08-30T22:05:23.300Z,1.23
2018-08-30T22:07:51.198Z,1.00
2018-08-30T22:10:19.318Z,1.10
2018-08-30T22:12:47.201Z,1.00
2018-08-30T22:15:15.174Z,0.90
2018-08-30T22:17:43.094Z,0.80
2018-08-30T22:20:11.116Z,0.83
2018-08-30T22:22:39.053Z,1.27
2018-08-30T22:25:07.099Z,1.10
2018-08-30T22:27:35.075Z,0.60
2018-08-30T22:30:03.316Z,0.73
2018-08-30T22:32:31.178Z,0.67
2018-08-30T22:37:25.984Z,1.37
2018-08-30T22:39:53.782Z,0.90
2018-08-30T22:42:21.578Z,0.90
2018-08-30T22:44:49.341Z,0.70
2018-08-30T22:47:17.137Z,1.13
2018-08-30T22:49:45.962Z,1.10
2018-08-30T22:52:13.727Z,1.27
2018-08-30T22:54:43.512Z,1.53
2018-08-30T22:57:11.278Z,1.20
2018-08-30T22:59:39.110Z,1.37
2018-08-30T23:02:06.876Z,1.60
2018-08-30T23:04:34.710Z,2.80
2018-08-30T23:07:02.528Z,2.43
2018-08-30T23:09:30.306Z,2.33
2018-08-30T23:11:59.111Z,2.27
2018-08-30T23:14:26.912Z,2.10
2018-08-30T23:16:54.682Z,1.60
2018-08-30T23:19:22.456Z,1.50
2018-08-30T23:21:50.306Z,1.73
2018-08-30T23:24:18.124Z,1.47
2018-08-30T23:26:45.873Z,2.60
2018-08-30T23:29:13.636Z,2.60
2018-08-30T23:31:41.462Z,2.67
2018-08-30T23:34:09.223Z,2.20
2018-08-30T23:36:37.036Z,2.10
2018-08-30T23:39:07.498Z,1.63
2018-08-30T23:44:36.024Z,2.07
2018-08-30T23:47:04.028Z,1.60
2018-08-30T23:49:36.045Z,2.00
2018-08-30T23:52:28.512Z,1.67
2018-08-30T23:54:56.300Z,1.00
2018-08-30T23:57:24.098Z,1.20
